createdAt,value
2023-03-05T00:02:56.156Z,100.00
2023-03-05T00:08:00.791Z,100.00
2023-03-05T00:13:06.310Z,100.00
2023-03-05T00:18:09.281Z,100.00
2023-03-05T00:23:13.955Z,100.00
2023-03-05T00:28:16.892Z,100.00
2023-03-05T00:33:19.868Z,100.00
2023-03-05T00:38:24.431Z,100.00
2023-03-05T00:43:27.689Z,100.00
2023-03-05T00:48:30.688Z,100.00
2023-03-05T00:53:34.985Z,100.00
2023-03-05T00:58:38.120Z,100.00
2023-03-05T01:03:41.122Z,100.00
2023-03-05T01:08:46.216Z,100.00
2023-03-05T01:13:49.623Z,100.00
2023-03-05T01:18:52.520Z,100.00
2023-03-05T01:23:56.995Z,100.00
2023-03-05T01:29:00.073Z,100.00
2023-03-05T01:34:03.394Z,100.00
2023-03-05T01:39:08.590Z,100.00
2023-03-05T01:44:23.050Z,100.00
2023-03-05T01:49:27.942Z,100.00
2023-03-05T01:54:36.070Z,100.00
2023-03-05T01:59:40.840Z,100.00
2023-03-05T02:04:47.681Z,100.00
2023-03-05T02:09:52.539Z,100.00
2023-03-05T02:14:59.437Z,100.00
2023-03-05T02:20:08.353Z,100.00
2023-03-05T02:25:18.717Z,100.00
2023-03-05T02:30:21.788Z,100.00
2023-03-05T02:35:25.783Z,100.00
2023-03-05T02:40:30.489Z,100.00
2023-03-05T02:45:34.192Z,100.00
2023-03-05T02:50:39.816Z,100.00
2023-03-05T02:55:47.809Z,100.00
2023-03-05T03:00:51.258Z,100.00
2023-03-05T03:05:54.404Z,100.00
2023-03-05T03:11:06.123Z,100.00
2023-03-05T03:16:11.540Z,100.00
2023-03-05T03:21:19.193Z,100.00
2023-03-05T03:26:26.550Z,100.00
2023-03-05T03:31:29.445Z,100.00
2023-03-05T03:36:32.410Z,100.00
2023-03-05T03:41:37.566Z,100.00
2023-03-05T03:46:41.920Z,100.00
2023-03-05T03:51:44.944Z,100.00
2023-03-05T03:56:49.504Z,100.00
2023-03-05T04:01:52.559Z,100.00
2023-03-05T04:06:55.974Z,100.00
2023-03-05T04:12:00.374Z,100.00
2023-03-05T04:17:06.230Z,100.00
2023-03-05T04:22:12.375Z,100.00
2023-03-05T04:27:17.086Z,100.00
2023-03-05T04:32:23.272Z,100.00
2023-03-05T04:37:27.662Z,100.00
2023-03-05T04:42:32.110Z,100.00
2023-03-05T04:47:35.885Z,100.00
2023-03-05T04:52:40.565Z,100.00
2023-03-05T04:57:45.225Z,100.00
2023-03-05T05:02:50.367Z,100.00
2023-03-05T05:07:55.926Z,100.00
2023-03-05T05:13:00.281Z,100.00
2023-03-05T05:18:03.229Z,100.00
2023-03-05T05:23:06.242Z,100.00
2023-03-05T05:28:11.115Z,100.00
2023-03-05T05:33:14.182Z,100.00
2023-03-05T05:38:17.205Z,100.00
2023-03-05T05:43:21.580Z,100.00
2023-03-05T05:48:25.000Z,100.00
2023-03-05T05:53:28.184Z,100.00
2023-03-05T05:58:32.658Z,100.00
2023-03-05T06:03:35.625Z,100.00
2023-03-05T06:08:38.793Z,100.00
2023-03-05T06:13:43.712Z,100.00
2023-03-05T06:18:46.964Z,100.00
2023-03-05T06:23:50.284Z,100.00
2023-03-05T06:28:54.971Z,100.00
2023-03-05T06:34:04.670Z,100.00
2023-03-05T06:39:10.749Z,100.00
2023-03-05T06:44:15.202Z,100.00
2023-03-05T06:49:21.023Z,100.00
2023-03-05T06:54:24.040Z,100.00
2023-03-05T06:59:28.450Z,100.00
2023-03-05T07:04:31.600Z,100.00
2023-03-05T07:09:34.741Z,100.00
2023-03-05T07:14:40.122Z,100.00
2023-03-05T07:19:43.939Z,100.00
2023-03-05T07:24:46.982Z,100.00
2023-03-05T07:29:51.378Z,100.00
2023-03-05T07:34:54.336Z,100.00
2023-03-05T07:39:57.463Z,100.00
2023-03-05T07:45:01.811Z,100.00
2023-03-05T07:50:07.080Z,100.00
2023-03-05T07:55:11.470Z,100.00
2023-03-05T08:00:16.912Z,100.00
2023-03-05T08:05:19.874Z,100.00
2023-03-05T08:10:22.872Z,100.00
2023-03-05T08:15:27.331Z,100.00
2023-03-05T08:20:35.797Z,100.00
2023-03-05T08:25:39.048Z,100.00
2023-03-05T08:30:43.427Z,100.00
2023-03-05T08:35:46.649Z,100.00
2023-03-05T08:40:49.744Z,100.00
2023-03-05T08:45:54.789Z,100.00
2023-03-05T08:50:57.839Z,100.00
2023-03-05T08:56:01.422Z,100.00
2023-03-05T09:01:06.423Z,100.00
2023-03-05T09:06:12.402Z,100.00
2023-03-05T09:11:15.686Z,100.00
2023-03-05T09:16:21.169Z,100.00
2023-03-05T09:21:24.292Z,100.00
2023-03-05T09:26:27.974Z,100.00
2023-03-05T09:31:32.419Z,100.00
2023-03-05T09:36:35.488Z,100.00
2023-03-05T09:41:57.204Z,100.00
2023-03-05T09:47:15.790Z,100.00
2023-03-05T09:52:22.327Z,100.00
2023-03-05T09:57:46.154Z,98.58
2023-03-05T10:02:55.772Z,98.84
2023-03-05T10:08:04.274Z,99.61
2023-03-05T10:13:17.638Z,98.28
2023-03-05T10:18:28.403Z,95.62
2023-03-05T10:23:59.994Z,94.13
2023-03-05T10:29:25.754Z,92.83
2023-03-05T10:34:46.253Z,90.27
2023-03-05T10:40:04.923Z,86.42
2023-03-05T10:45:15.802Z,89.56
2023-03-05T10:50:23.891Z,90.78
2023-03-05T10:55:26.903Z,90.38
2023-03-05T11:00:30.025Z,87.42
2023-03-05T11:05:50.127Z,89.27
2023-03-05T11:11:07.928Z,87.43
2023-03-05T11:16:20.782Z,87.55
2023-03-05T11:21:28.007Z,87.12
2023-03-05T11:26:31.280Z,90.16
2023-03-05T11:31:35.528Z,90.19
2023-03-05T11:36:41.879Z,91.64
2023-03-05T11:41:49.794Z,88.35
2023-03-05T11:46:57.674Z,86.99
2023-03-05T11:52:10.970Z,88.91
2023-03-05T11:57:16.879Z,90.40
2023-03-05T12:02:23.258Z,85.50
2023-03-05T12:07:36.762Z,84.72
2023-03-05T12:12:45.086Z,79.38
2023-03-05T12:17:55.600Z,82.37
2023-03-05T12:23:00.405Z,81.78
2023-03-05T12:28:14.946Z,80.18
2023-03-05T12:33:32.730Z,83.11
2023-03-05T12:38:38.139Z,77.33
2023-03-05T12:43:42.531Z,83.47
2023-03-05T12:48:46.146Z,86.40
2023-03-05T12:53:53.310Z,84.76
2023-03-05T12:59:06.194Z,83.83
2023-03-05T13:04:19.813Z,83.70
2023-03-05T13:09:27.698Z,81.81
2023-03-05T13:14:37.615Z,82.33
2023-03-05T13:19:43.164Z,86.24
2023-03-05T13:24:48.055Z,80.29
2023-03-05T13:29:55.144Z,86.85
2023-03-05T13:35:00.525Z,83.64
2023-03-05T13:40:21.712Z,83.85
2023-03-05T13:45:28.189Z,83.97
2023-03-05T13:50:33.437Z,82.27
2023-03-05T13:55:37.932Z,79.96
2023-03-05T14:00:41.393Z,86.00
2023-03-05T14:05:45.818Z,84.08
2023-03-05T14:10:51.469Z,77.71
2023-03-05T14:16:07.924Z,76.76
2023-03-05T14:21:12.709Z,74.27
2023-03-05T14:26:28.799Z,74.55
2023-03-05T14:31:40.048Z,76.21
2023-03-05T14:36:49.703Z,83.78
2023-03-05T14:41:54.686Z,78.27
2023-03-05T14:46:58.921Z,80.05
2023-03-05T14:52:01.974Z,85.94
2023-03-05T14:57:15.663Z,85.07
2023-03-05T15:02:22.984Z,87.28
2023-03-05T15:07:30.224Z,84.30
2023-03-05T15:12:34.722Z,87.92
2023-03-05T15:17:42.461Z,89.70
2023-03-05T15:22:45.624Z,90.52
2023-03-05T15:27:51.037Z,90.97
2023-03-05T15:32:55.435Z,91.20
2023-03-05T15:37:58.693Z,92.14
2023-03-05T15:43:03.249Z,90.18
2023-03-05T15:48:12.270Z,92.54
2023-03-05T15:53:17.968Z,89.54
2023-03-05T15:58:22.572Z,93.48
2023-03-05T16:03:25.818Z,100.00
2023-03-05T16:08:29.505Z,100.00
2023-03-05T16:13:36.001Z,100.00
2023-03-05T16:18:42.883Z,100.00
2023-03-05T16:23:46.039Z,100.00
2023-03-05T16:28:50.484Z,100.00
2023-03-05T16:33:53.562Z,100.00
2023-03-05T16:38:58.579Z,100.00
2023-03-05T16:44:05.430Z,100.00
2023-03-05T16:49:10.094Z,100.00
2023-03-05T16:54:13.308Z,100.00
2023-03-05T16:59:17.865Z,100.00
2023-03-05T17:04:21.002Z,100.00
2023-03-05T17:09:24.805Z,100.00
2023-03-05T17:14:29.505Z,100.00
2023-03-05T17:19:32.739Z,100.00
2023-03-05T17:24:36.508Z,100.00
2023-03-05T17:29:41.141Z,100.00
2023-03-05T17:34:44.657Z,100.00
2023-03-05T17:39:47.816Z,100.00
2023-03-05T17:44:52.429Z,100.00
2023-03-05T17:49:55.585Z,100.00
2023-03-05T17:54:59.306Z,100.00
2023-03-05T18:00:06.367Z,100.00
2023-03-05T18:05:15.887Z,100.00
2023-03-05T18:10:20.968Z,100.00
2023-03-05T18:15:27.505Z,100.00
2023-03-05T18:20:32.826Z,100.00
2023-03-05T18:25:36.324Z,100.00
2023-03-05T18:30:41.825Z,100.00
2023-03-05T18:35:45.166Z,100.00
2023-03-05T18:40:51.140Z,100.00
2023-03-05T18:45:57.504Z,100.00
2023-03-05T18:51:02.098Z,100.00
2023-03-05T18:56:06.839Z,100.00
2023-03-05T19:01:11.323Z,100.00
2023-03-05T19:06:14.722Z,100.00
2023-03-05T19:11:19.985Z,100.00
2023-03-05T19:16:26.742Z,100.00
2023-03-05T19:21:30.882Z,100.00
2023-03-05T19:26:34.195Z,100.00
2023-03-05T19:31:39.597Z,100.00
2023-03-05T19:36:42.681Z,100.00
2023-03-05T19:41:45.783Z,100.00
2023-03-05T19:46:50.834Z,100.00
2023-03-05T19:51:54.234Z,100.00
2023-03-05T19:56:58.900Z,100.00
2023-03-05T20:02:05.775Z,100.00
2023-03-05T20:07:10.463Z,100.00
2023-03-05T20:12:13.567Z,100.00
2023-03-05T20:17:18.102Z,100.00
2023-03-05T20:22:21.157Z,100.00
2023-03-05T20:27:24.302Z,100.00
2023-03-05T20:32:28.845Z,100.00
2023-03-05T20:37:40.112Z,100.00
2023-03-05T20:42:43.336Z,100.00
2023-03-05T20:47:48.765Z,100.00
2023-03-05T20:52:51.821Z,100.00
2023-03-05T20:57:54.780Z,100.00
2023-03-05T21:02:59.240Z,100.00
2023-03-05T21:08:09.204Z,100.00
2023-03-05T21:13:12.278Z,100.00
2023-03-05T21:18:16.681Z,100.00
2023-03-05T21:23:19.870Z,100.00
2023-03-05T21:28:23.072Z,100.00
2023-03-05T21:33:30.655Z,100.00
2023-03-05T21:38:34.708Z,100.00
2023-03-05T21:43:38.123Z,100.00
2023-03-05T21:48:42.680Z,100.00
2023-03-05T21:53:46.269Z,100.00
2023-03-05T21:58:50.142Z,100.00
2023-03-05T22:03:57.039Z,100.00
2023-03-05T22:09:00.140Z,100.00
2023-03-05T22:14:06.540Z,100.00
2023-03-05T22:19:11.525Z,100.00
2023-03-05T22:24:14.647Z,100.00
2023-03-05T22:29:17.729Z,100.00
2023-03-05T22:34:22.263Z,100.00
2023-03-05T22:39:25.368Z,100.00
2023-03-05T22:44:28.424Z,100.00
2023-03-05T22:49:34.099Z,100.00
2023-03-05T22:54:37.166Z,100.00
2023-03-05T22:59:40.368Z,100.00
2023-03-05T23:04:53.244Z,100.00
2023-03-05T23:09:58.459Z,100.00
2023-03-05T23:15:06.238Z,100.00
2023-03-05T23:20:14.508Z,100.00
2023-03-05T23:25:21.260Z,100.00
2023-03-05T23:30:24.881Z,100.00
2023-03-05T23:35:31.301Z,100.00
2023-03-05T23:40:36.877Z,100.00
2023-03-05T23:45:41.724Z,100.00
2023-03-05T23:50:48.224Z,100.00
2023-03-05T23:55:52.057Z,100.00
